Time;durP1;ratioP1;P1;durP2;ratioP2;P2;SDS_P1;SDS_P2;PMS_P1;PMS_P2;Temp;Humidity;BMP_temperature;BMP_pressure;BME280_temperature;BME280_humidity;BME280_pressure;Samples;Min_cycle;Max_cycle;Signal;HPM_P1;HPM_P2
2022/11/15 00:00:09;;;;;;;6.30;4.60;;;10.20;99.90;;;;;;6061339;23;20192;-71
2022/11/15 00:02:38;;;;;;;4.80;4.40;;;10.20;99.90;;;;;;6061148;23;20224;-71
2022/11/15 00:05:05;;;;;;;5.70;4.40;;;10.30;99.90;;;;;;6063078;23;20203;-71
2022/11/15 00:07:32;;;;;;;5.90;4.50;;;10.30;99.90;;;;;;6063414;23;20856;-72
2022/11/15 00:09:59;;;;;;;7.03;4.20;;;10.30;99.90;;;;;;6062329;23;20681;-71
2022/11/15 00:12:28;;;;;;;4.20;3.75;;;10.30;99.90;;;;;;6064016;23;20673;-70
2022/11/15 00:14:55;;;;;;;4.93;4.53;;;10.30;99.90;;;;;;6064458;23;20590;-71
2022/11/15 00:17:23;;;;;;;4.85;4.13;;;10.30;99.90;;;;;;6063801;23;20283;-71
2022/11/15 00:19:51;;;;;;;5.85;4.30;;;10.30;99.90;;;;;;6063876;23;20188;-71
2022/11/15 00:22:18;;;;;;;4.35;4.05;;;10.30;99.90;;;;;;6037571;23;20199;-71
2022/11/15 00:24:45;;;;;;;4.25;3.63;;;10.30;99.90;;;;;;6064941;23;20200;-71
2022/11/15 00:27:12;;;;;;;4.15;3.80;;;10.30;99.90;;;;;;6063266;23;20566;-71
2022/11/15 00:29:43;;;;;;;4.20;3.80;;;10.30;99.90;;;;;;6038642;23;20278;-71
2022/11/15 00:32:10;;;;;;;4.30;3.90;;;10.30;99.90;;;;;;6061624;23;20218;-71
2022/11/15 00:34:37;;;;;;;4.68;4.15;;;10.30;99.90;;;;;;6064226;23;20539;-71
2022/11/15 00:37:07;;;;;;;4.63;3.85;;;10.30;99.90;;;;;;6061383;23;20590;-71
2022/11/15 00:39:34;;;;;;;3.70;3.38;;;10.30;99.90;;;;;;6062778;23;20192;-71
2022/11/15 00:42:01;;;;;;;3.75;3.45;;;10.40;99.90;;;;;;6062352;23;20275;-72
2022/11/15 00:44:28;;;;;;;4.40;4.00;;;10.30;99.90;;;;;;6038727;23;20211;-71
2022/11/15 00:46:55;;;;;;;3.90;3.60;;;10.30;99.90;;;;;;6061252;23;20235;-71
2022/11/15 00:49:22;;;;;;;4.80;3.67;;;10.30;99.90;;;;;;6063021;23;20243;-72
2022/11/15 00:51:49;;;;;;;3.70;3.40;;;10.30;99.90;;;;;;6037970;23;20723;-71
2022/11/15 00:54:18;;;;;;;6.40;3.50;;;10.40;99.90;;;;;;6064600;23;20820;-71
2022/11/15 00:56:46;;;;;;;3.85;3.55;;;10.30;99.90;;;;;;6065047;23;20203;-71
2022/11/15 00:59:13;;;;;;;4.25;3.85;;;10.40;99.90;;;;;;6069078;23;20196;-71
2022/11/15 01:01:41;;;;;;;4.30;3.90;;;10.30;99.90;;;;;;6063774;23;20195;-71
2022/11/15 01:04:08;;;;;;;5.15;3.50;;;10.30;99.90;;;;;;6064949;23;20246;-71
2022/11/15 01:06:35;;;;;;;4.82;3.72;;;10.30;99.90;;;;;;6062196;23;20203;-71
2022/11/15 01:09:02;;;;;;;5.45;3.75;;;10.30;99.90;;;;;;6061522;23;20239;-71
2022/11/15 01:11:31;;;;;;;4.35;3.47;;;10.30;99.90;;;;;;6062112;23;20242;-71
2022/11/15 01:13:58;;;;;;;4.00;3.42;;;10.30;99.90;;;;;;6062536;23;20201;-71
2022/11/15 01:16:25;;;;;;;4.38;3.97;;;10.20;99.90;;;;;;6059590;23;20294;-71
2022/11/15 01:18:52;;;;;;;4.57;3.55;;;10.10;99.90;;;;;;6062327;23;20638;-71
2022/11/15 01:21:20;;;;;;;4.38;3.97;;;10.10;99.90;;;;;;6061153;23;20593;-71
2022/11/15 01:23:47;;;;;;;3.92;3.50;;;10.00;99.90;;;;;;6061415;23;20280;-72
2022/11/15 01:26:16;;;;;;;3.80;3.15;;;9.90;99.90;;;;;;6059676;23;20206;-71
2022/11/15 01:28:44;;;;;;;4.35;3.95;;;9.90;99.90;;;;;;6061884;23;20223;-71
2022/11/15 01:31:15;;;;;;;4.57;3.70;;;9.80;99.90;;;;;;6060979;23;20298;-71
2022/11/15 01:33:42;;;;;;;3.85;3.47;;;9.80;99.90;;;;;;6060957;23;20642;-71
2022/11/15 01:36:13;;;;;;;5.25;4.03;;;9.70;99.90;;;;;;6059765;23;20196;-71
2022/11/15 01:38:41;;;;;;;4.57;3.78;;;9.70;99.90;;;;;;6060310;23;20277;-71
2022/11/15 01:41:14;;;;;;;4.38;3.97;;;9.70;99.90;;;;;;6062125;23;20637;-71
2022/11/15 01:43:42;;;;;;;3.97;3.67;;;9.60;99.90;;;;;;6026553;23;20199;-71
2022/11/15 01:46:24;;;;;;;5.28;3.63;;;9.60;99.90;;;;;;6061337;23;20200;-71
2022/11/15 01:48:55;;;;;;;4.30;3.60;;;9.60;99.90;;;;;;6062618;23;20237;-71
2022/11/15 01:51:26;;;;;;;6.45;4.07;;;9.50;99.90;;;;;;6062886;23;20220;-71
2022/11/15 01:54:00;;;;;;;4.30;3.55;;;9.50;99.90;;;;;;6061302;23;20206;-71
2022/11/15 01:56:31;;;;;;;3.53;3.22;;;9.50;99.90;;;;;;6061275;23;20226;-71
2022/11/15 01:59:01;;;;;;;3.75;3.45;;;9.50;99.90;;;;;;6061681;23;20271;-71
2022/11/15 02:01:33;;;;;;;3.70;3.40;;;9.60;99.90;;;;;;6060145;23;20199;-71
2022/11/15 02:04:03;;;;;;;3.75;3.10;;;9.70;99.90;;;;;;6063017;23;20584;-71
2022/11/15 02:06:30;;;;;;;4.25;3.10;;;9.70;99.90;;;;;;6060935;23;20611;-71
2022/11/15 02:08:58;;;;;;;4.15;3.30;;;9.80;99.90;;;;;;6059473;23;20196;-71
2022/11/15 02:11:25;;;;;;;4.38;3.80;;;9.80;99.90;;;;;;6055092;23;20239;-71
2022/11/15 02:13:52;;;;;;;5.43;3.05;;;9.90;99.90;;;;;;6060789;23;20211;-71
2022/11/15 02:16:28;;;;;;;3.67;2.80;;;9.90;99.90;;;;;;6054191;23;20192;-71
2022/11/15 02:19:04;;;;;;;3.65;2.90;;;10.00;99.90;;;;;;6059863;23;20199;-71
2022/11/15 02:21:36;;;;;;;3.58;3.10;;;10.00;99.90;;;;;;6063582;23;20616;-71
2022/11/15 02:24:31;;;;;;;3.83;3.25;;;10.10;99.90;;;;;;6062269;23;20247;-71
2022/11/15 02:27:28;;;;;;;2.83;2.60;;;10.10;99.90;;;;;;6054035;23;20240;-71
2022/11/15 02:30:16;;;;;;;3.28;3.00;;;10.10;99.90;;;;;;6020451;23;20299;-71
2022/11/15 02:32:49;;;;;;;3.47;2.63;;;10.10;99.90;;;;;;6053614;23;20274;-71
2022/11/15 02:35:27;;;;;;;2.83;2.53;;;10.30;99.90;;;;;;6061545;23;20275;-71
2022/11/15 02:37:58;;;;;;;3.50;2.60;;;10.10;99.90;;;;;;6059966;23;20276;-71
2022/11/15 02:40:35;;;;;;;3.20;2.70;;;10.10;99.90;;;;;;6061016;23;20196;-71
2022/11/15 02:46:00;;;;;;;3.40;2.50;;;10.20;99.90;;;;;;6049307;23;20430;-71
2022/11/15 02:48:28;;;;;;;4.20;3.22;;;10.20;99.90;;;;;;6056841;23;20192;-71
2022/11/15 02:50:56;;;;;;;6.10;3.58;;;10.30;99.90;;;;;;6058908;23;20300;-71
2022/11/15 02:53:25;;;;;;;3.67;3.38;;;10.30;99.90;;;;;;6062320;23;20235;-72
2022/11/15 02:55:54;;;;;;;3.90;3.50;;;10.30;99.90;;;;;;6061664;23;20197;-71
2022/11/15 02:58:48;;;;;;;3.00;2.80;;;10.30;99.90;;;;;;6061395;23;20684;-71
2022/11/15 03:01:27;;;;;;;3.42;3.10;;;10.30;99.90;;;;;;6060118;23;20195;-71
2022/11/15 03:04:06;;;;;;;3.63;3.33;;;10.30;99.90;;;;;;6061720;23;20195;-71
2022/11/15 03:06:39;;;;;;;3.83;3.08;;;10.20;99.90;;;;;;6061058;23;20188;-71
2022/11/15 03:09:13;;;;;;;4.25;3.78;;;10.20;99.90;;;;;;6059833;23;20780;-71
2022/11/15 03:11:48;;;;;;;3.25;3.00;;;10.20;99.90;;;;;;6061033;23;20670;-71
2022/11/15 03:14:22;;;;;;;4.10;3.20;;;10.20;99.90;;;;;;6061323;23;20200;-71
2022/11/15 03:16:58;;;;;;;3.80;3.30;;;10.20;99.90;;;;;;6059327;23;20196;-71
2022/11/15 03:19:31;;;;;;;3.78;3.20;;;10.10;99.90;;;;;;6059180;23;20267;-71
2022/11/15 03:22:01;;;;;;;4.63;3.72;;;10.00;99.90;;;;;;6055290;23;20207;-71
2022/11/15 03:24:30;;;;;;;3.95;3.60;;;10.00;99.90;;;;;;6060428;23;20263;-71
2022/11/15 03:27:00;;;;;;;4.30;3.90;;;9.80;99.90;;;;;;6062681;23;20191;-71
2022/11/15 03:29:33;;;;;;;6.22;4.15;;;9.70;99.90;;;;;;6059841;23;20570;-71
2022/11/15 03:32:08;;;;;;;4.70;3.65;;;9.70;99.90;;;;;;6061420;23;20256;-71
2022/11/15 03:34:39;;;;;;;3.92;3.53;;;9.50;99.90;;;;;;6060390;23;20238;-71
2022/11/15 03:37:08;;;;;;;4.85;4.13;;;9.40;99.90;;;;;;6061251;23;20691;-71
2022/11/15 03:39:35;;;;;;;5.35;4.60;;;9.30;99.90;;;;;;6052227;23;20223;-71
2022/11/15 03:42:12;;;;;;;4.63;4.10;;;9.20;99.90;;;;;;6032888;23;20207;-71
2022/11/15 03:44:47;;;;;;;4.70;4.20;;;9.00;99.90;;;;;;6062037;23;20199;-71
2022/11/15 03:47:22;;;;;;;5.82;4.70;;;8.90;99.90;;;;;;6061359;23;20190;-71
2022/11/15 03:49:53;;;;;;;7.85;5.18;;;8.90;99.90;;;;;;6050272;23;20192;-71
2022/11/15 03:52:22;;;;;;;5.85;5.10;;;8.80;99.90;;;;;;6060831;23;20197;-71
2022/11/15 03:54:51;;;;;;;6.35;5.75;;;8.70;99.90;;;;;;6037715;23;20197;-71
2022/11/15 03:57:19;;;;;;;6.47;5.88;;;8.60;99.90;;;;;;6060624;23;20199;-71
2022/11/15 03:59:47;;;;;;;6.15;5.55;;;8.70;99.90;;;;;;6059735;23;20272;-71
2022/11/15 04:02:16;;;;;;;7.28;5.90;;;8.70;99.90;;;;;;6060884;23;20634;-71
2022/11/15 04:04:44;;;;;;;6.05;5.38;;;8.70;99.90;;;;;;6061084;23;20201;-71
2022/11/15 04:07:12;;;;;;;6.80;5.70;;;8.70;99.90;;;;;;6061150;23;20203;-71
2022/11/15 04:12:30;;;;;;;7.63;5.80;;;8.80;99.90;;;;;;6035462;23;20298;-71
2022/11/15 04:15:07;;;;;;;10.52;6.43;;;8.80;99.90;;;;;;6060825;23;20203;-71
2022/11/15 04:17:39;;;;;;;6.90;6.30;;;8.80;99.90;;;;;;6026764;23;20196;-71
2022/11/15 04:25:43;;;;;;;7.07;6.35;;;8.90;99.90;;;;;;6023504;23;20198;-71
2022/11/15 04:28:11;;;;;;;6.90;6.22;;;8.90;99.90;;;;;;6058703;23;20259;-82
2022/11/15 04:30:38;;;;;;;8.20;6.30;;;8.90;99.90;;;;;;6059590;23;20275;-82
2022/11/15 04:33:09;;;;;;;7.70;6.13;;;9.00;99.90;;;;;;6060237;23;20716;-81
2022/11/15 04:35:36;;;;;;;6.80;6.10;;;9.00;99.90;;;;;;6035845;23;20639;-81
2022/11/15 04:38:04;;;;;;;7.75;6.68;;;9.00;99.90;;;;;;6058825;23;20192;-82
2022/11/15 04:40:32;;;;;;;7.35;6.63;;;9.00;99.90;;;;;;6059922;23;20239;-82
2022/11/15 04:42:59;;;;;;;6.25;5.65;;;9.00;99.90;;;;;;6040656;23;20194;-80
2022/11/15 04:45:26;;;;;;;6.78;6.18;;;9.00;99.90;;;;;;6034943;23;20188;-80
2022/11/15 04:47:54;;;;;;;6.57;5.72;;;9.10;99.90;;;;;;6060851;23;20199;-79
2022/11/15 04:50:23;;;;;;;6.25;5.65;;;9.10;99.90;;;;;;6057815;23;20243;-80
2022/11/15 04:52:53;;;;;;;6.85;6.20;;;9.10;99.90;;;;;;6058729;23;20202;-80
2022/11/15 04:55:21;;;;;;;6.63;5.93;;;9.20;99.90;;;;;;6056076;23;20204;-72
2022/11/15 04:57:48;;;;;;;6.68;5.60;;;9.20;99.90;;;;;;6057055;23;20278;-72
2022/11/15 05:00:17;;;;;;;6.45;5.95;;;9.20;99.90;;;;;;6058439;23;20591;-72
2022/11/15 05:05:30;;;;;;;6.82;6.15;;;9.10;99.90;;;;;;6050469;23;20184;-72
2022/11/15 05:07:57;;;;;;;8.25;6.60;;;9.10;99.90;;;;;;6053436;23;20194;-72
2022/11/15 05:10:26;;;;;;;8.18;6.25;;;9.00;99.90;;;;;;6059483;23;20195;-72
2022/11/15 05:12:53;;;;;;;7.05;6.35;;;9.00;99.90;;;;;;6061919;23;20210;-72
2022/11/15 05:15:20;;;;;;;6.70;6.03;;;8.90;99.90;;;;;;6055758;23;20270;-73
2022/11/15 05:17:47;;;;;;;6.63;6.03;;;8.80;99.90;;;;;;6046806;23;20195;-72
2022/11/15 05:20:15;;;;;;;6.93;5.97;;;8.70;99.90;;;;;;6059746;23;20192;-73
2022/11/15 05:22:43;;;;;;;6.97;6.28;;;8.60;99.90;;;;;;6062416;23;20184;-73
2022/11/15 05:25:11;;;;;;;7.13;6.50;;;8.50;99.90;;;;;;6060666;23;20253;-73
2022/11/15 05:27:38;;;;;;;7.07;6.35;;;8.50;99.90;;;;;;6062461;23;20571;-73
2022/11/15 05:30:06;;;;;;;6.38;5.78;;;8.50;99.90;;;;;;6080837;23;20275;-73
2022/11/15 05:32:33;;;;;;;6.35;5.65;;;8.50;99.90;;;;;;6061448;23;20219;-73
2022/11/15 05:35:00;;;;;;;6.95;5.70;;;8.50;99.90;;;;;;6057169;23;20190;-73
2022/11/15 05:37:29;;;;;;;6.18;5.53;;;8.50;99.90;;;;;;6063381;23;20194;-73
2022/11/15 05:39:58;;;;;;;8.60;6.00;;;8.50;99.90;;;;;;6069957;23;20187;-73
2022/11/15 05:42:27;;;;;;;6.00;5.40;;;8.50;99.90;;;;;;6050397;23;20192;-73
2022/11/15 05:44:54;;;;;;;6.07;5.57;;;8.50;99.90;;;;;;6043866;23;20688;-73
2022/11/15 05:47:26;;;;;;;6.25;5.28;;;8.40;99.90;;;;;;6053391;23;20215;-73
2022/11/15 05:49:55;;;;;;;6.07;5.47;;;8.40;99.90;;;;;;6052152;23;20191;-79
2022/11/15 05:52:29;;;;;;;6.60;6.00;;;8.40;99.90;;;;;;6053453;23;20625;-79
2022/11/15 05:54:59;;;;;;;6.90;6.30;;;8.40;99.90;;;;;;6052688;23;20192;-73
2022/11/15 05:57:26;;;;;;;6.60;6.00;;;8.40;99.90;;;;;;6049352;23;20198;-73
2022/11/15 05:59:55;;;;;;;6.80;6.18;;;8.40;99.90;;;;;;6054778;23;20395;-72
2022/11/15 06:02:22;;;;;;;11.25;6.90;;;8.30;99.90;;;;;;6054529;23;20272;-72
2022/11/15 06:04:50;;;;;;;6.97;6.30;;;8.30;99.90;;;;;;6064010;23;20192;-73
2022/11/15 06:07:17;;;;;;;7.03;6.32;;;8.20;99.90;;;;;;6057942;23;20607;-73
2022/11/15 06:09:44;;;;;;;8.25;6.75;;;8.20;99.90;;;;;;6022624;23;20194;-72
2022/11/15 06:12:12;;;;;;;8.63;6.90;;;8.20;99.90;;;;;;6056617;23;20297;-72
2022/11/15 06:14:39;;;;;;;7.38;6.68;;;8.20;99.90;;;;;;6058643;23;20202;-71
2022/11/15 06:17:07;;;;;;;7.88;7.07;;;8.20;99.90;;;;;;6036148;23;20190;-73
2022/11/15 06:19:34;;;;;;;6.65;6.05;;;8.20;99.90;;;;;;6052935;23;20194;-73
2022/11/15 06:22:01;;;;;;;7.40;6.70;;;8.30;99.90;;;;;;6057366;23;20179;-72
2022/11/15 06:24:28;;;;;;;8.63;7.32;;;8.30;99.90;;;;;;6060960;23;20198;-73
2022/11/15 06:26:57;;;;;;;6.65;6.00;;;8.30;99.90;;;;;;6057798;23;20292;-72
2022/11/15 06:29:25;;;;;;;6.43;5.82;;;8.40;99.90;;;;;;6030259;23;20277;-73
2022/11/15 06:31:53;;;;;;;7.65;6.70;;;8.40;99.90;;;;;;6060065;23;20710;-73
2022/11/15 06:34:20;;;;;;;6.65;6.07;;;8.40;99.90;;;;;;6047448;23;20205;-73
2022/11/15 06:36:47;;;;;;;7.00;6.40;;;8.40;99.90;;;;;;6056547;23;20222;-73
2022/11/15 06:39:14;;;;;;;10.10;7.03;;;8.40;99.90;;;;;;6057533;23;20191;-72
2022/11/15 06:41:42;;;;;;;8.55;7.13;;;8.40;99.90;;;;;;6060398;23;20186;-73
2022/11/15 06:44:09;;;;;;;6.88;6.18;;;8.40;99.90;;;;;;6033846;23;20249;-72
2022/11/15 06:46:38;;;;;;;8.90;7.07;;;8.40;99.90;;;;;;6058628;23;20257;-73
2022/11/15 06:49:05;;;;;;;7.13;6.43;;;8.40;99.90;;;;;;6053756;23;20218;-73
2022/11/15 06:51:32;;;;;;;7.93;6.93;;;8.50;99.90;;;;;;6059460;23;20211;-73
2022/11/15 06:53:59;;;;;;;7.13;6.43;;;8.50;99.90;;;;;;6056416;23;20242;-73
2022/11/15 06:56:26;;;;;;;6.63;5.97;;;8.50;99.90;;;;;;6061316;23;20531;-73
2022/11/15 06:58:54;;;;;;;7.90;6.20;;;8.60;99.90;;;;;;6060016;23;20196;-73
2022/11/15 07:01:22;;;;;;;7.65;5.60;;;8.60;99.90;;;;;;6030248;23;20456;-73
2022/11/15 07:03:50;;;;;;;6.75;5.28;;;8.70;99.90;;;;;;6062058;23;20550;-73
2022/11/15 07:06:18;;;;;;;5.63;5.10;;;8.80;99.90;;;;;;6032039;23;20621;-72
2022/11/15 07:08:45;;;;;;;6.55;5.15;;;8.80;99.90;;;;;;6055639;23;20195;-73
2022/11/15 07:11:12;;;;;;;8.20;6.13;;;8.80;99.90;;;;;;6058833;23;20221;-73
2022/11/15 07:13:39;;;;;;;6.22;5.35;;;8.90;99.90;;;;;;6054073;23;20216;-73
2022/11/15 07:16:08;;;;;;;6.18;5.57;;;8.90;99.90;;;;;;6058565;23;20246;-73
2022/11/15 07:18:36;;;;;;;7.13;5.53;;;8.90;99.90;;;;;;6058685;23;20279;-73
2022/11/15 07:21:07;;;;;;;6.00;5.40;;;9.00;99.90;;;;;;6055047;23;20234;-73
2022/11/15 07:23:37;;;;;;;9.15;5.50;;;9.00;99.90;;;;;;6060238;23;20203;-73
2022/11/15 07:26:05;;;;;;;5.63;4.90;;;9.10;99.90;;;;;;6057600;23;20227;-73
2022/11/15 07:28:32;;;;;;;8.05;5.10;;;9.20;99.90;;;;;;6057402;23;20646;-73
2022/11/15 07:31:02;;;;;;;6.05;5.40;;;9.40;99.90;;;;;;6028710;23;20212;-72
2022/11/15 07:33:30;;;;;;;5.93;5.43;;;9.70;99.90;;;;;;6056044;23;20252;-73
2022/11/15 07:36:01;;;;;;;5.60;4.97;;;9.80;99.90;;;;;;6034983;23;20189;-73
2022/11/15 07:38:31;;;;;;;6.43;5.75;;;10.00;99.90;;;;;;6059016;23;20185;-73
2022/11/15 07:40:59;;;;;;;5.40;4.90;;;10.00;99.90;;;;;;6056917;23;20271;-72
2022/11/15 07:43:27;;;;;;;7.07;5.47;;;10.10;99.90;;;;;;6059954;23;20542;-73
2022/11/15 07:45:54;;;;;;;6.75;6.05;;;10.20;99.90;;;;;;6054149;23;20247;-73
2022/11/15 07:48:22;;;;;;;6.38;5.38;;;10.20;99.90;;;;;;6051203;23;20566;-73
2022/11/15 07:50:49;;;;;;;8.30;5.15;;;10.20;99.90;;;;;;6060933;23;20188;-72
2022/11/15 07:53:17;;;;;;;5.82;4.82;;;10.20;99.90;;;;;;6056248;23;20283;-73
2022/11/15 07:55:46;;;;;;;5.32;4.90;;;10.20;99.90;;;;;;6035270;23;20202;-73
2022/11/15 07:58:13;;;;;;;4.82;4.40;;;10.30;99.90;;;;;;6053352;23;20215;-72
2022/11/15 08:00:40;;;;;;;5.75;4.95;;;10.30;99.90;;;;;;6055732;23;20628;-72
2022/11/15 08:03:10;;;;;;;7.82;5.35;;;10.30;99.90;;;;;;6056226;23;20488;-72
2022/11/15 08:05:38;;;;;;;6.90;5.75;;;10.20;99.90;;;;;;6040997;23;20239;-72
2022/11/15 08:08:06;;;;;;;6.88;5.45;;;10.20;99.90;;;;;;6055527;23;20207;-72
2022/11/15 08:10:35;;;;;;;7.97;5.75;;;10.20;99.90;;;;;;6059201;23;20281;-72
2022/11/15 08:13:06;;;;;;;6.18;5.32;;;10.30;99.90;;;;;;6057937;23;20630;-73
2022/11/15 08:15:35;;;;;;;7.95;5.43;;;10.50;99.90;;;;;;6057516;23;20193;-72
2022/11/15 08:18:04;;;;;;;5.32;4.72;;;10.50;99.90;;;;;;6055882;23;20193;-73
2022/11/15 08:20:33;;;;;;;5.25;4.72;;;10.50;99.90;;;;;;6023531;23;20188;-72
2022/11/15 08:23:03;;;;;;;6.65;5.50;;;10.40;99.90;;;;;;6027580;23;20188;-72
2022/11/15 08:25:32;;;;;;;6.13;5.40;;;10.40;99.90;;;;;;6057619;23;20198;-73
2022/11/15 08:28:00;;;;;;;7.40;5.30;;;10.40;99.90;;;;;;6033972;23;20188;-72
2022/11/15 08:30:29;;;;;;;8.15;5.60;;;10.40;99.90;;;;;;6031561;23;20189;-73
2022/11/15 08:32:59;;;;;;;8.43;5.63;;;10.50;99.90;;;;;;6058406;23;20259;-73
2022/11/15 08:35:26;;;;;;;6.45;5.35;;;10.60;99.90;;;;;;6030836;23;20601;-72
2022/11/15 08:37:54;;;;;;;6.03;5.40;;;10.70;99.90;;;;;;6054825;23;20638;-73
2022/11/15 08:40:21;;;;;;;10.30;5.43;;;10.90;99.90;;;;;;6061433;23;20663;-72
2022/11/15 08:42:48;;;;;;;5.47;4.97;;;11.30;99.90;;;;;;6058818;23;20764;-73
2022/11/15 08:45:16;;;;;;;6.60;4.38;;;11.90;99.90;;;;;;6056826;23;20308;-73
2022/11/15 08:47:45;;;;;;;7.43;4.68;;;12.30;99.90;;;;;;6054669;23;20247;-73
2022/11/15 08:50:12;;;;;;;6.00;4.50;;;12.70;99.90;;;;;;6054354;23;20190;-73
2022/11/15 08:52:40;;;;;;;5.60;4.50;;;12.90;99.90;;;;;;6053652;23;20538;-73
2022/11/15 08:55:08;;;;;;;6.40;4.20;;;13.20;99.90;;;;;;6046458;23;20432;-73
2022/11/15 08:57:35;;;;;;;4.93;4.17;;;13.40;99.90;;;;;;6050936;23;20930;-73
2022/11/15 09:00:03;;;;;;;5.60;5.00;;;13.70;99.90;;;;;;6053275;23;20526;-73
2022/11/15 09:02:31;;;;;;;4.80;4.40;;;14.10;99.90;;;;;;6056007;23;20442;-73
2022/11/15 09:05:00;;;;;;;4.77;4.37;;;14.30;99.90;;;;;;6054878;23;20470;-73
2022/11/15 09:07:29;;;;;;;4.60;4.20;;;14.20;99.90;;;;;;6055742;23;20438;-73
2022/11/15 09:09:56;;;;;;;4.67;4.27;;;14.00;99.90;;;;;;6028944;23;20488;-73
2022/11/15 09:12:23;;;;;;;8.70;4.57;;;14.10;99.90;;;;;;6058852;23;20502;-73
2022/11/15 09:14:50;;;;;;;7.63;4.40;;;14.00;99.90;;;;;;6050903;23;20886;-73
2022/11/15 09:17:17;;;;;;;4.90;4.30;;;13.90;99.90;;;;;;6038921;23;20809;-73
2022/11/15 09:19:45;;;;;;;5.43;4.17;;;13.70;99.90;;;;;;6042420;23;20465;-73
2022/11/15 09:22:13;;;;;;;4.53;4.17;;;13.40;99.90;;;;;;6027720;23;20526;-71
2022/11/15 09:24:40;;;;;;;4.20;3.90;;;13.30;99.90;;;;;;6045343;23;20447;-73
2022/11/15 09:27:07;;;;;;;4.47;4.03;;;13.30;99.90;;;;;;6024755;23;20494;-73
2022/11/15 09:29:36;;;;;;;4.20;3.73;;;13.20;99.90;;;;;;6027599;23;20444;-73
2022/11/15 09:32:03;;;;;;;6.63;3.90;;;13.20;99.90;;;;;;6018990;23;20457;-73
2022/11/15 09:34:30;;;;;;;4.40;3.93;;;13.30;99.90;;;;;;6038573;23;20826;-73
2022/11/15 09:36:57;;;;;;;4.47;4.00;;;13.30;99.90;;;;;;6010023;23;20524;-73
2022/11/15 09:39:26;;;;;;;4.03;3.60;;;13.30;99.90;;;;;;6019901;23;20459;-73
2022/11/15 09:42:08;;;;;;;4.60;3.93;;;13.40;99.90;;;;;;6039630;23;20461;-73
2022/11/15 09:44:44;;;;;;;4.13;3.60;;;13.50;99.90;;;;;;6030827;23;20529;-73
2022/11/15 09:47:34;;;;;;;3.57;3.27;;;13.80;99.90;;;;;;6024546;23;20482;-73
2022/11/15 09:50:08;;;;;;;8.70;4.13;;;14.30;99.90;;;;;;6022872;23;20445;-73
2022/11/15 09:52:37;;;;;;;6.00;4.50;;;14.80;99.90;;;;;;6033319;23;20463;-73
2022/11/15 09:55:09;;;;;;;5.20;4.13;;;15.10;99.90;;;;;;6032219;23;20450;-73
2022/11/15 09:57:42;;;;;;;4.80;3.90;;;15.40;99.90;;;;;;6030803;23;20432;-73
2022/11/15 10:00:25;;;;;;;5.53;4.10;;;15.90;99.90;;;;;;6001038;23;20523;-73
2022/11/15 10:03:08;;;;;;;3.67;3.30;;;16.40;99.90;;;;;;6025668;23;20514;-73
2022/11/15 10:05:39;;;;;;;3.50;3.20;;;16.50;99.90;;;;;;6025440;23;20792;-72
2022/11/15 10:08:28;;;;;;;5.93;3.80;;;16.30;99.90;;;;;;5997180;23;20929;-72
2022/11/15 10:11:00;;;;;;;3.47;3.13;;;16.00;99.90;;;;;;6007805;23;20469;-72
2022/11/15 10:13:35;;;;;;;4.33;3.40;;;15.90;99.90;;;;;;6010872;23;20470;-72
2022/11/15 10:16:15;;;;;;;3.67;3.33;;;15.70;99.90;;;;;;6028274;23;20965;-72
2022/11/15 10:18:53;;;;;;;3.30;3.00;;;15.70;99.90;;;;;;6038943;23;20553;-72
2022/11/15 10:21:24;;;;;;;5.23;3.20;;;15.60;99.90;;;;;;6050136;23;20442;-72
2022/11/15 10:23:53;;;;;;;3.70;3.20;;;15.00;99.90;;;;;;6051322;23;20944;-72
2022/11/15 10:26:25;;;;;;;4.10;3.63;;;14.70;99.90;;;;;;6038489;23;20500;-72
2022/11/15 10:28:52;;;;;;;3.10;2.80;;;14.80;99.90;;;;;;6037620;23;20435;-72
2022/11/15 10:31:24;;;;;;;4.93;2.83;;;14.50;99.90;;;;;;6012718;23;20475;-72
2022/11/15 10:33:57;;;;;;;4.03;3.10;;;14.40;99.90;;;;;;6021219;23;20478;-72
2022/11/15 10:36:25;;;;;;;5.03;2.80;;;14.30;99.90;;;;;;6012556;23;21009;-72
2022/11/15 10:38:58;;;;;;;3.57;3.23;;;14.10;99.90;;;;;;6036150;23;20555;-72
2022/11/15 10:41:38;;;;;;;3.50;3.20;;;14.10;99.90;;;;;;6036910;23;20445;-71
2022/11/15 10:44:25;;;;;;;3.57;3.27;;;13.90;99.90;;;;;;6035003;23;20947;-72
2022/11/15 10:47:26;;;;;;;4.00;3.60;;;14.00;99.90;;;;;;6037837;23;20533;-72
2022/11/15 10:49:56;;;;;;;3.37;3.07;;;14.00;99.90;;;;;;5924160;24;20923;-72
2022/11/15 10:52:25;;;;;;;5.63;4.07;;;13.90;99.90;;;;;;5984868;23;20519;-71
2022/11/15 10:54:56;;;;;;;4.43;4.03;;;13.90;99.90;;;;;;6028553;23;20481;-72
2022/11/15 10:57:27;;;;;;;5.53;3.60;;;13.80;99.90;;;;;;6032485;23;20434;-72
2022/11/15 10:59:57;;;;;;;4.37;3.70;;;13.80;99.90;;;;;;6026594;23;21031;-72
2022/11/15 11:02:31;;;;;;;3.57;3.27;;;13.80;99.90;;;;;;6039966;23;20448;-72
2022/11/15 11:04:59;;;;;;;4.93;3.70;;;13.80;99.90;;;;;;6048975;23;20532;-72
2022/11/15 11:07:29;;;;;;;4.37;3.87;;;13.90;99.90;;;;;;6045916;23;20988;-71
2022/11/15 11:10:01;;;;;;;4.70;3.63;;;13.90;99.90;;;;;;6053376;23;20443;-71
2022/11/15 11:12:32;;;;;;;4.00;3.13;;;14.00;99.90;;;;;;6041463;23;20466;-72
2022/11/15 11:15:01;;;;;;;3.60;3.03;;;14.00;99.90;;;;;;6018840;23;20444;-72
2022/11/15 11:17:45;;;;;;;5.57;3.53;;;14.00;99.90;;;;;;6038978;23;20960;-71
2022/11/15 11:20:22;;;;;;;3.23;2.70;;;14.00;99.90;;;;;;6040490;23;20486;-72
2022/11/15 11:23:03;;;;;;;5.07;3.47;;;14.00;99.90;;;;;;6045786;23;20457;-72
2022/11/15 11:25:35;;;;;;;4.63;3.67;;;14.00;99.90;;;;;;6028513;23;20432;-72
2022/11/15 11:28:21;;;;;;;3.50;3.20;;;13.90;99.90;;;;;;6035238;23;20440;-72
2022/11/15 11:31:01;;;;;;;6.13;4.10;;;13.80;99.90;;;;;;6026969;23;20462;-72
2022/11/15 11:33:33;;;;;;;4.60;3.43;;;13.80;99.90;;;;;;6045403;23;20460;-72
2022/11/15 11:36:15;;;;;;;4.40;3.57;;;13.80;99.90;;;;;;6047233;23;20443;-72
2022/11/15 11:38:57;;;;;;;3.90;3.53;;;13.90;99.90;;;;;;6033472;23;20470;-72
2022/11/15 11:41:43;;;;;;;5.20;3.50;;;13.90;99.90;;;;;;6031003;23;20440;-72
2022/11/15 11:44:25;;;;;;;4.30;3.67;;;14.00;99.90;;;;;;6035335;23;20517;-72
2022/11/15 11:46:57;;;;;;;5.50;3.77;;;14.10;99.90;;;;;;6030600;23;20524;-72
2022/11/15 11:49:31;;;;;;;5.30;4.10;;;14.10;99.90;;;;;;6039075;23;20448;-72
2022/11/15 11:52:04;;;;;;;3.50;3.20;;;14.10;99.90;;;;;;6032258;23;20505;-73
2022/11/15 11:54:38;;;;;;;4.30;3.47;;;14.20;99.90;;;;;;6030142;23;20467;-72
2022/11/15 11:57:12;;;;;;;3.93;3.50;;;14.50;99.90;;;;;;6033151;23;20445;-72
2022/11/15 11:59:50;;;;;;;4.80;3.80;;;14.40;99.90;;;;;;6013205;23;20513;-72
2022/11/15 12:02:21;;;;;;;5.80;3.50;;;14.40;99.90;;;;;;6012445;23;20436;-72
2022/11/15 12:04:53;;;;;;;3.40;3.10;;;14.40;99.90;;;;;;6017507;23;20446;-72
2022/11/15 12:07:25;;;;;;;4.47;3.80;;;14.20;99.90;;;;;;6027214;23;20441;-72
2022/11/15 12:09:58;;;;;;;3.50;2.90;;;14.20;99.90;;;;;;6015194;23;20912;-72
2022/11/15 12:12:32;;;;;;;4.13;2.70;;;14.20;99.90;;;;;;5989574;23;20470;-70
2022/11/15 12:15:14;;;;;;;4.73;3.30;;;14.20;99.90;;;;;;6030644;23;20438;-72
2022/11/15 12:17:43;;;;;;;3.30;2.80;;;14.30;99.90;;;;;;6008984;23;20440;-72
2022/11/15 12:20:18;;;;;;;3.40;2.83;;;14.40;99.90;;;;;;6002319;23;20913;-72
2022/11/15 12:22:52;;;;;;;5.13;3.73;;;14.60;99.90;;;;;;6018525;23;20454;-72
2022/11/15 12:25:23;;;;;;;5.00;3.00;;;14.40;99.90;;;;;;6005818;23;20450;-72
2022/11/15 12:27:56;;;;;;;3.60;3.23;;;14.40;99.90;;;;;;6026683;23;20490;-72
2022/11/15 12:30:28;;;;;;;4.37;2.97;;;14.40;99.90;;;;;;6014745;23;20582;-72
2022/11/15 12:32:58;;;;;;;4.00;3.00;;;14.50;99.90;;;;;;6019101;23;20464;-74
2022/11/15 12:35:31;;;;;;;3.90;2.90;;;14.50;99.90;;;;;;6023253;23;20439;-70
2022/11/15 12:37:59;;;;;;;4.60;3.40;;;14.40;99.90;;;;;;6032245;23;20436;-71
2022/11/15 12:40:38;;;;;;;4.63;2.83;;;14.40;99.90;;;;;;6014494;23;20591;-71
2022/11/15 12:43:42;;;;;;;3.40;3.10;;;14.40;99.90;;;;;;6025965;23;20438;-72
2022/11/15 12:46:20;;;;;;;4.37;2.70;;;14.40;99.90;;;;;;6028009;23;20529;-73
2022/11/15 12:48:59;;;;;;;5.10;3.27;;;14.30;99.90;;;;;;6024832;23;20497;-72
2022/11/15 12:52:07;;;;;;;4.37;3.10;;;14.20;99.90;;;;;;6028956;23;20795;-72
2022/11/15 12:55:03;;;;;;;4.37;2.87;;;14.10;99.90;;;;;;5992465;23;20462;-73
2022/11/15 12:57:42;;;;;;;3.63;3.20;;;14.10;99.90;;;;;;5954445;23;20498;-72
2022/11/15 13:00:39;;;;;;;6.80;3.13;;;14.10;99.90;;;;;;6041708;23;20524;-73
2022/11/15 13:03:27;;;;;;;5.50;3.20;;;14.10;99.90;;;;;;6027935;23;20437;-72
2022/11/15 13:06:06;;;;;;;5.50;3.30;;;14.10;99.90;;;;;;6039845;23;20442;-73
2022/11/15 13:08:39;;;;;;;5.93;3.23;;;14.10;99.90;;;;;;6003137;23;20816;-73
2022/11/15 13:11:44;;;;;;;3.83;3.50;;;14.10;99.90;;;;;;6022797;23;20471;-73
2022/11/15 13:14:40;;;;;;;8.00;3.70;;;14.10;99.90;;;;;;6021732;23;20558;-73
2022/11/15 13:17:40;;;;;;;3.43;3.13;;;14.10;99.90;;;;;;6018443;23;20524;-73
2022/11/15 13:20:24;;;;;;;6.13;3.20;;;14.10;99.90;;;;;;6018314;23;20512;-73
2022/11/15 13:22:52;;;;;;;3.90;3.20;;;14.10;99.90;;;;;;6023153;23;20459;-72
2022/11/15 13:25:33;;;;;;;2.83;2.63;;;14.20;99.90;;;;;;6004866;23;20456;-72